Terminal Aerodrome Forecast
Issued by NWS Melbourne, FL

Home | Current Version | Previous Version | Text Only | Print | Product List | Glossary On
Versions: 1 2 3 4 5 6 7 8 9 10 11 12 13 14 15 16
000
FTUS42 KMLB 312300 RRA
TAFMLB
TAF
KMLB 312346Z 0100/0124 14011KT P6SM OVC120
     FM010100 16006KT P6SM SCT060 BKN250
     FM011400 19004KT P6SM SCT022 SCT250
     FM011800 12009KT P6SM VCTS BKN030CB=

USA.gov is the U.S. government's official web portal to all federal, state and local government web resources and services.